LFRD

Dinard-Pleurtuit-Saint-Malo Airport

Airport
ICAO code
LFRD
IATA Code
DNR
Summary
ICAO Region
EUR
ICAO Territory
Location

, Bretagne

Serving
Dinard
Elevation
219 ft
Coordinates
48° 35' 16" N , 2° 4' 48" W
Metar
Observation
LFRD 012300Z AUTO VRB02KT 4900 BR NSC 03/02 Q1025 TEMPO 0500 FG VV///
Station
Dinard
Date/Time
2022-12-01 23:00:00
Wind speed
02 kts
Lowest cloud amount
nil significant cloud
Temperature
3°C
Dew point
2°C
Humidity
93%
QNH
1025 hPa
Weather condition
n/a

Runways

Designator Length Width Surface Rops
12/30 1435 45 ASP Yes/Yes
17/35 2200 45 ASP Yes/Yes

Airport map

Aerial View

SKYbrary Partners:

Safety knowledge contributed by: